Highland-University Park's Hourly Summary for Saturday, July 7, 2018
Hour Temp
(f)
RH
(%)
Solar Rad.
(MJ/m2)
Rainfall
(in)
Wind
(mph)
7/7/2018 12:00 AM 80 69 0 0 1.24
7/7/2018 1:00 AM 79 70 0 0 0.75
7/7/2018 2:00 AM 78 72 0 0 0.13
7/7/2018 3:00 AM 77 77 0 0 0.51
7/7/2018 4:00 AM 76 79 0 0 0.27
7/7/2018 5:00 AM 75 81 0 0 0.12
7/7/2018 6:00 AM 74 81 0 0 0.08
7/7/2018 7:00 AM 74 86 0.02 0 0.13
7/7/2018 8:00 AM 75 80 0.12 0 0.21
7/7/2018 9:00 AM 77 73 0.29 0 1.47
7/7/2018 10:00 AM 81 65 1.51 0 1.01
7/7/2018 11:00 AM 84 57 1.96 0 1.69
7/7/2018 12:00 PM 88 52 2.72 0 1.77
7/7/2018 1:00 PM 91 45 3.07 0 1.88
7/7/2018 2:00 PM 93 40 3.16 0 2.04
7/7/2018 3:00 PM 94 39 2.89 0 2.44
7/7/2018 4:00 PM 95 37 2.47 0 2.24
7/7/2018 5:00 PM 95 35 2.14 0 2.44
7/7/2018 6:00 PM 95 33 1.53 0 2.12
7/7/2018 7:00 PM 92 36 0.82 0 3.22
7/7/2018 8:00 PM 91 40 0.39 0 1.65
7/7/2018 9:00 PM 87 47 0.03 0 1.23
7/7/2018 10:00 PM 86 49 0 0 0.77
7/7/2018 11:00 PM 84 54 0 0 1.1
Data Summary 84 58 23.12 0.00 1.27